Airfield :
LOGIN :

Register | Disclaimer

   EN    FR    IT 

 










Legend :    VFR   Marginal VFR   IFR   Intensive IFR   Very Intensive IFR
Visi :
Ceiling :
>= 8 km
>= 3000ft
5 to 8 km
1000 to 3000 ft
1500m to 5 km
500 to 1000 ft
800 to 1500m
200 to 500 ft
< 800m
< 200 ft
Symbols :   Thunderstorms  Fog  Heavy snow  Heavy precipitations  Wind > 20 kt
SIGMETs :     Misc.  Thunderstorms  Icing  Turbulence  Mountain Waves  Volcanic Ashes






- Airport Elevation : 1325 ft
- IATA code : EBU


LFMH - St-Etienne Boutheon

CURRENT METAR :
  • 282200Z AUTO VRB02KT 5000 BR OVC013 01/00 Q1022

EXPIRED METARs :
  • 282130Z AUTO 18002KT 6000 BKN016 BKN029 01/00 Q1022
  • 282100Z AUTO VRB02KT 5000 BR NSC 01/M02 Q1022
  • 282030Z AUTO VRB02KT 6000 NSC 02/01 Q1022
  • 282000Z AUTO 36004KT 7000 NSC 03/01 Q1022
  • 281930Z AUTO 36005KT 7000 SCT019 04/02 Q1022
  • 281900Z AUTO 04004KT 360V080 8000 FEW039 04/01 Q1022
  • 281830Z AUTO 36005KT 9000 FEW020 BKN034 05/02 Q1022
  • 281800Z AUTO 01003KT 330V030 9000 SCT019 BKN033 05/02 Q1022
  • 281730Z AUTO 35005KT 320V020 9000 BKN019 BKN031 06/03 Q1022
  • 281700Z AUTO 35007KT 9999 BKN020 OVC033 06/03 Q1021

Expired Forecast.
ATIS : +33 4 77 36 17 51



MET'MAP, your aeronautical weather chart ! - Copyright ORBIFLY December 2007 - Disclaimer

ORBIFLY MET'MAP TEAM :

Programming & Development : Alexandra Zaïnal
Original concept : Baudouin d'Aumeries
Technical & hardware support : Manuel Goepfert
Assistance : Marc-Olivier Méhu




SOURCES & CREDITS :

   NOAA